Terminal Aerodrome Forecast
Issued by NWS Mt. Holly, NJ

Home | Current Version | Previous Version | Text Only | Print | Product List | Glossary On
Versions: 1 2 3 4 5 6 7 8 9 10 11 12 13 14 15 16 17 18 19 20 21 22 23 24 25 26 27 28
639
FTAK31 PANC 290525
TAFABE
TAF
PABE 290525Z 2906/3006 29010KT P6SM SKC
     FM291200 34007KT P6SM VCFG SCT002
      TEMPO 2913/2916 2SM BR BKN002
     FM291800 01010KT P6SM FEW045
     FM292000 03012G20KT P6SM SKC
     FM300530 36009KT P6SM SKC=

USA.gov is the U.S. government's official web portal to all federal, state and local government web resources and services.